sensor_id;sensor_type;location;lat;lon;timestamp;temperature;humidity
23717;DHT22;22094;52.130;5.598;2024-02-26T10:04:33;5.40;99.90
23717;DHT22;22094;52.130;5.598;2024-02-26T10:10:44;5.40;1.00
23717;DHT22;22094;52.130;5.598;2024-02-26T15:01:50;3.20;1.00
23717;DHT22;22094;52.130;5.598;2024-02-26T15:04:56;6.30;1.00
23717;DHT22;22094;52.130;5.598;2024-02-26T15:07:45;6.30;99.90
23717;DHT22;22094;52.130;5.598;2024-02-26T15:10:39;6.30;99.90
23717;DHT22;22094;52.130;5.598;2024-02-26T16:01:12;6.30;62.40
23717;DHT22;22094;52.130;5.598;2024-02-26T16:06:36;6.30;1.00
23717;DHT22;22094;52.130;5.598;2024-02-26T16:16:57;6.20;1.00
23717;DHT22;22094;52.130;5.598;2024-02-26T16:27:08;6.10;1.00
23717;DHT22;22094;52.130;5.598;2024-02-26T16:33:29;6.00;1.00
23717;DHT22;22094;52.130;5.598;2024-02-26T16:36:37;6.00;1.00
23717;DHT22;22094;52.130;5.598;2024-02-26T16:39:04;5.20;1.00
23717;DHT22;22094;52.130;5.598;2024-02-26T16:41:35;5.70;99.90
23717;DHT22;22094;52.130;5.598;2024-02-26T16:44:04;6.50;68.40
23717;DHT22;22094;52.130;5.598;2024-02-26T16:49:51;5.30;1.00
23717;DHT22;22094;52.130;5.598;2024-02-26T16:52:29;5.90;1.00
23717;DHT22;22094;52.130;5.598;2024-02-26T16:58:27;5.60;99.90
23717;DHT22;22094;52.130;5.598;2024-02-26T17:01:22;6.10;1.00
23717;DHT22;22094;52.130;5.598;2024-02-26T17:03:50;5.40;99.90
23717;DHT22;22094;52.130;5.598;2024-02-26T17:06:29;6.00;1.00
23717;DHT22;22094;52.130;5.598;2024-02-26T17:09:28;5.40;1.00
23717;DHT22;22094;52.130;5.598;2024-02-26T17:12:08;5.40;1.00
23717;DHT22;22094;52.130;5.598;2024-02-26T17:14:48;5.40;1.00
23717;DHT22;22094;52.130;5.598;2024-02-26T17:17:19;5.80;1.00
23717;DHT22;22094;52.130;5.598;2024-02-26T18:01:58;4.80;1.00
23717;DHT22;22094;52.130;5.598;2024-02-26T18:25:20;4.20;99.90
23717;DHT22;22094;52.130;5.598;2024-02-26T18:27:46;4.50;6.50
23717;DHT22;22094;52.130;5.598;2024-02-26T18:30:11;4.50;1.00
23717;DHT22;22094;52.130;5.598;2024-02-26T18:32:37;4.50;99.90
23717;DHT22;22094;52.130;5.598;2024-02-26T18:35:03;4.50;1.00
23717;DHT22;22094;52.130;5.598;2024-02-26T18:37:30;4.50;99.90
23717;DHT22;22094;52.130;5.598;2024-02-26T18:39:55;4.50;99.90
23717;DHT22;22094;52.130;5.598;2024-02-26T18:42:21;4.40;1.00
23717;DHT22;22094;52.130;5.598;2024-02-26T18:44:46;4.40;71.00
23717;DHT22;22094;52.130;5.598;2024-02-26T18:47:12;4.40;99.90
23717;DHT22;22094;52.130;5.598;2024-02-26T18:49:41;4.40;1.00
23717;DHT22;22094;52.130;5.598;2024-02-26T18:52:07;4.30;1.00
23717;DHT22;22094;52.130;5.598;2024-02-26T18:54:33;4.30;1.00
23717;DHT22;22094;52.130;5.598;2024-02-26T18:56:59;5.40;1.00
23717;DHT22;22094;52.130;5.598;2024-02-26T18:59:25;4.30;27.60
23717;DHT22;22094;52.130;5.598;2024-02-26T19:01:50;4.30;99.90
23717;DHT22;22094;52.130;5.598;2024-02-26T19:04:16;4.20;1.00
23717;DHT22;22094;52.130;5.598;2024-02-26T19:06:45;4.20;99.90
23717;DHT22;22094;52.130;5.598;2024-02-26T19:09:11;5.10;99.90
23717;DHT22;22094;52.130;5.598;2024-02-26T19:11:48;4.20;99.90
23717;DHT22;22094;52.130;5.598;2024-02-26T19:14:15;4.10;99.90
23717;DHT22;22094;52.130;5.598;2024-02-26T19:16:40;4.40;99.90
23717;DHT22;22094;52.130;5.598;2024-02-26T19:19:07;3.40;1.00
23717;DHT22;22094;52.130;5.598;2024-02-26T19:21:34;4.00;99.90
23717;DHT22;22094;52.130;5.598;2024-02-26T19:23:59;4.10;99.90
23717;DHT22;22094;52.130;5.598;2024-02-26T19:26:25;4.00;1.00
23717;DHT22;22094;52.130;5.598;2024-02-26T19:28:52;4.80;1.00
23717;DHT22;22094;52.130;5.598;2024-02-26T19:31:17;4.90;1.00
23717;DHT22;22094;52.130;5.598;2024-02-26T19:33:43;4.10;1.00
23717;DHT22;22094;52.130;5.598;2024-02-26T19:36:09;4.00;99.90
23717;DHT22;22094;52.130;5.598;2024-02-26T19:38:35;4.00;99.90
23717;DHT22;22094;52.130;5.598;2024-02-26T19:41:00;4.20;1.00
23717;DHT22;22094;52.130;5.598;2024-02-26T19:43:26;3.20;1.00
23717;DHT22;22094;52.130;5.598;2024-02-26T19:45:53;3.70;1.00
23717;DHT22;22094;52.130;5.598;2024-02-26T19:48:19;5.10;99.90
23717;DHT22;22094;52.130;5.598;2024-02-26T19:50:44;4.30;99.90
23717;DHT22;22094;52.130;5.598;2024-02-26T19:53:10;3.80;99.90
23717;DHT22;22094;52.130;5.598;2024-02-26T19:55:36;4.20;99.90
23717;DHT22;22094;52.130;5.598;2024-02-26T19:58:03;4.40;94.90
23717;DHT22;22094;52.130;5.598;2024-02-26T20:00:32;3.70;99.90
23717;DHT22;22094;52.130;5.598;2024-02-26T20:02:57;3.70;99.90
23717;DHT22;22094;52.130;5.598;2024-02-26T20:05:23;4.50;1.00
23717;DHT22;22094;52.130;5.598;2024-02-26T20:07:49;4.50;1.00
23717;DHT22;22094;52.130;5.598;2024-02-26T20:10:14;3.90;12.70
23717;DHT22;22094;52.130;5.598;2024-02-26T20:12:40;3.80;99.90
23717;DHT22;22094;52.130;5.598;2024-02-26T20:15:06;3.70;99.90
23717;DHT22;22094;52.130;5.598;2024-02-26T20:17:32;3.80;99.90
23717;DHT22;22094;52.130;5.598;2024-02-26T20:19:57;3.70;99.90
23717;DHT22;22094;52.130;5.598;2024-02-26T20:22:26;4.30;99.90
23717;DHT22;22094;52.130;5.598;2024-02-26T20:24:53;4.50;99.90
23717;DHT22;22094;52.130;5.598;2024-02-26T20:27:19;4.50;99.90
23717;DHT22;22094;52.130;5.598;2024-02-26T20:29:45;4.40;99.90
23717;DHT22;22094;52.130;5.598;2024-02-26T20:32:10;3.70;99.90
23717;DHT22;22094;52.130;5.598;2024-02-26T20:34:36;3.90;99.90
23717;DHT22;22094;52.130;5.598;2024-02-26T20:37:02;4.00;1.00
23717;DHT22;22094;52.130;5.598;2024-02-26T20:39:28;5.10;1.00
23717;DHT22;22094;52.130;5.598;2024-02-26T20:41:56;4.00;1.00
23717;DHT22;22094;52.130;5.598;2024-02-26T20:44:22;4.10;99.90
23717;DHT22;22094;52.130;5.598;2024-02-26T20:46:49;4.10;99.90
23717;DHT22;22094;52.130;5.598;2024-02-26T20:49:14;4.30;1.00
23717;DHT22;22094;52.130;5.598;2024-02-26T20:51:42;4.70;1.00
23717;DHT22;22094;52.130;5.598;2024-02-26T20:54:09;4.90;99.90
23717;DHT22;22094;52.130;5.598;2024-02-26T20:56:37;5.20;99.90
23717;DHT22;22094;52.130;5.598;2024-02-26T20:59:03;4.20;1.00
23717;DHT22;22094;52.130;5.598;2024-02-26T21:01:29;4.30;1.00
23717;DHT22;22094;52.130;5.598;2024-02-26T21:03:55;4.30;1.00
23717;DHT22;22094;52.130;5.598;2024-02-26T21:06:20;4.90;1.00
23717;DHT22;22094;52.130;5.598;2024-02-26T21:08:46;4.60;1.00
23717;DHT22;22094;52.130;5.598;2024-02-26T21:11:12;4.30;1.00
23717;DHT22;22094;52.130;5.598;2024-02-26T21:13:37;4.30;1.00
23717;DHT22;22094;52.130;5.598;2024-02-26T21:16:04;4.80;1.00
23717;DHT22;22094;52.130;5.598;2024-02-26T21:18:30;4.30;1.00
23717;DHT22;22094;52.130;5.598;2024-02-26T21:20:56;4.30;1.00
23717;DHT22;22094;52.130;5.598;2024-02-26T21:23:24;5.10;99.90
23717;DHT22;22094;52.130;5.598;2024-02-26T21:25:49;4.30;99.90
23717;DHT22;22094;52.130;5.598;2024-02-26T21:28:15;4.80;99.90
23717;DHT22;22094;52.130;5.598;2024-02-26T21:30:41;4.90;99.90
23717;DHT22;22094;52.130;5.598;2024-02-26T21:33:09;4.40;99.90
23717;DHT22;22094;52.130;5.598;2024-02-26T21:35:35;4.50;98.30
23717;DHT22;22094;52.130;5.598;2024-02-26T21:38:01;5.10;99.90
23717;DHT22;22094;52.130;5.598;2024-02-26T21:40:27;4.30;99.90
23717;DHT22;22094;52.130;5.598;2024-02-26T21:42:52;4.30;99.90
23717;DHT22;22094;52.130;5.598;2024-02-26T21:45:18;4.30;1.00
23717;DHT22;22094;52.130;5.598;2024-02-26T21:47:46;4.30;1.00
23717;DHT22;22094;52.130;5.598;2024-02-26T21:50:13;4.20;1.00
23717;DHT22;22094;52.130;5.598;2024-02-26T21:52:38;4.20;7.90
23717;DHT22;22094;52.130;5.598;2024-02-26T21:55:05;5.00;99.90
23717;DHT22;22094;52.130;5.598;2024-02-26T21:57:31;4.20;79.70
23717;DHT22;22094;52.130;5.598;2024-02-26T21:59:57;4.30;1.00
23717;DHT22;22094;52.130;5.598;2024-02-26T22:02:22;4.70;1.00
23717;DHT22;22094;52.130;5.598;2024-02-26T22:04:48;4.00;1.00
23717;DHT22;22094;52.130;5.598;2024-02-26T22:07:13;4.10;1.00
23717;DHT22;22094;52.130;5.598;2024-02-26T22:09:39;4.00;99.90
23717;DHT22;22094;52.130;5.598;2024-02-26T22:12:05;4.00;99.90
23717;DHT22;22094;52.130;5.598;2024-02-26T22:14:30;4.00;99.90
23717;DHT22;22094;52.130;5.598;2024-02-26T22:16:56;3.90;99.90
23717;DHT22;22094;52.130;5.598;2024-02-26T22:19:21;3.90;99.90
23717;DHT22;22094;52.130;5.598;2024-02-26T22:21:47;3.80;99.90
23717;DHT22;22094;52.130;5.598;2024-02-26T22:24:13;4.20;99.90
23717;DHT22;22094;52.130;5.598;2024-02-26T22:26:38;4.20;1.00
23717;DHT22;22094;52.130;5.598;2024-02-26T22:29:05;3.70;1.00
23717;DHT22;22094;52.130;5.598;2024-02-26T22:31:30;3.70;1.00
23717;DHT22;22094;52.130;5.598;2024-02-26T22:33:57;3.80;1.00
23717;DHT22;22094;52.130;5.598;2024-02-26T22:36:23;4.60;1.00
23717;DHT22;22094;52.130;5.598;2024-02-26T22:38:49;3.70;1.00
23717;DHT22;22094;52.130;5.598;2024-02-26T22:41:15;3.70;1.00
23717;DHT22;22094;52.130;5.598;2024-02-26T22:43:41;4.40;99.90
23717;DHT22;22094;52.130;5.598;2024-02-26T22:46:06;4.30;99.90
23717;DHT22;22094;52.130;5.598;2024-02-26T22:48:32;3.70;99.90
23717;DHT22;22094;52.130;5.598;2024-02-26T22:50:57;4.10;99.90
23717;DHT22;22094;52.130;5.598;2024-02-26T22:53:23;3.50;99.90
23717;DHT22;22094;52.130;5.598;2024-02-26T22:55:49;3.40;99.90
23717;DHT22;22094;52.130;5.598;2024-02-26T22:58:17;3.40;99.90
23717;DHT22;22094;52.130;5.598;2024-02-26T23:00:43;3.40;99.90
23717;DHT22;22094;52.130;5.598;2024-02-26T23:03:09;4.10;99.90
23717;DHT22;22094;52.130;5.598;2024-02-26T23:05:35;3.30;99.90
23717;DHT22;22094;52.130;5.598;2024-02-26T23:08:02;3.30;1.00
23717;DHT22;22094;52.130;5.598;2024-02-26T23:10:28;3.30;1.00
23717;DHT22;22094;52.130;5.598;2024-02-26T23:12:54;3.60;99.90
23717;DHT22;22094;52.130;5.598;2024-02-26T23:15:20;3.30;99.90
23717;DHT22;22094;52.130;5.598;2024-02-26T23:17:46;3.30;99.90
23717;DHT22;22094;52.130;5.598;2024-02-26T23:20:13;3.20;99.90
23717;DHT22;22094;52.130;5.598;2024-02-26T23:22:45;4.40;99.90
23717;DHT22;22094;52.130;5.598;2024-02-26T23:25:12;3.10;99.90
23717;DHT22;22094;52.130;5.598;2024-02-26T23:27:38;3.30;99.90
23717;DHT22;22094;52.130;5.598;2024-02-26T23:30:04;3.20;99.90
23717;DHT22;22094;52.130;5.598;2024-02-26T23:32:31;3.10;1.00
23717;DHT22;22094;52.130;5.598;2024-02-26T23:34:56;3.10;1.00
23717;DHT22;22094;52.130;5.598;2024-02-26T23:37:22;3.00;1.00
23717;DHT22;22094;52.130;5.598;2024-02-26T23:39:48;3.10;1.00
23717;DHT22;22094;52.130;5.598;2024-02-26T23:42:14;3.10;1.00
23717;DHT22;22094;52.130;5.598;2024-02-26T23:44:40;4.00;1.00
23717;DHT22;22094;52.130;5.598;2024-02-26T23:47:06;3.70;1.00
23717;DHT22;22094;52.130;5.598;2024-02-26T23:49:32;3.00;1.00
23717;DHT22;22094;52.130;5.598;2024-02-26T23:51:58;3.60;1.00
23717;DHT22;22094;52.130;5.598;2024-02-26T23:54:23;3.00;1.00
23717;DHT22;22094;52.130;5.598;2024-02-26T23:56:49;2.90;1.00
23717;DHT22;22094;52.130;5.598;2024-02-26T23:59:14;3.00;1.00
